Time;durP1;ratioP1;P1;durP2;ratioP2;P2;SDS_P1;SDS_P2;PMS_P1;PMS_P2;Temp;Humidity;BMP_temperature;BMP_pressure;BME280_temperature;BME280_humidity;BME280_pressure;Samples;Min_cycle;Max_cycle;Signal;HPM_P1;HPM_P2
2024/01/17 00:00:15;;;;;;;21.90;6.15;;;;;;;;;;5062154;28;20024;-82
2024/01/17 00:02:44;;;;;;;24.05;6.18;;;;;;;;;;5047627;28;20040;-82
2024/01/17 00:05:11;;;;;;;27.65;6.13;;;;;;;;;;5062150;28;20028;-82
2024/01/17 00:07:40;;;;;;;21.20;5.57;;;;;;;;;;5057932;28;20028;-82
2024/01/17 00:10:09;;;;;;;22.90;5.50;;;;;;;;;;5060087;28;20502;-83
2024/01/17 00:12:45;;;;;;;19.25;5.40;;;;;;;;;;5060224;28;20436;-82
2024/01/17 00:15:13;;;;;;;21.20;5.60;;;;;;;;;;5045725;28;20506;-82
2024/01/17 00:17:40;;;;;;;20.50;4.95;;;;;;;;;;5059667;28;20059;-82
2024/01/17 00:20:09;;;;;;;22.45;5.10;;;;;;;;;;5045376;28;20028;-82
2024/01/17 00:22:36;;;;;;;17.25;4.35;;;;;;;;;;5060195;28;20028;-81
2024/01/17 00:25:05;;;;;;;17.13;4.25;;;;;;;;;;5049111;28;20047;-82
2024/01/17 00:27:33;;;;;;;16.67;3.55;;;;;;;;;;5047543;28;20044;-81
2024/01/17 00:30:01;;;;;;;15.55;3.28;;;;;;;;;;5047380;28;20021;-82
2024/01/17 00:32:31;;;;;;;18.80;3.80;;;;;;;;;;5060199;28;20044;-81
2024/01/17 00:35:09;;;;;;;15.10;4.15;;;;;;;;;;5062286;28;20024;-81
2024/01/17 00:37:37;;;;;;;20.58;4.30;;;;;;;;;;5038737;28;20048;-84
2024/01/17 00:40:05;;;;;;;16.75;4.25;;;;;;;;;;5065155;28;20054;-84
2024/01/17 00:42:41;;;;;;;18.45;4.13;;;;;;;;;;5062378;28;20036;-83
2024/01/17 00:45:10;;;;;;;21.23;4.28;;;;;;;;;;5066330;28;20688;-83
2024/01/17 00:47:47;;;;;;;17.40;4.78;;;;;;;;;;5063178;28;20094;-83
2024/01/17 00:50:18;;;;;;;17.90;4.22;;;;;;;;;;5056338;28;20471;-81
2024/01/17 00:52:50;;;;;;;17.38;4.35;;;;;;;;;;5060742;28;20042;-84
2024/01/17 00:55:17;;;;;;;15.55;4.05;;;;;;;;;;5047520;28;20153;-81
2024/01/17 00:57:45;;;;;;;18.08;4.10;;;;;;;;;;5051002;28;20134;-81
2024/01/17 01:00:14;;;;;;;15.05;4.43;;;;;;;;;;5051704;28;20532;-82
2024/01/17 01:02:43;;;;;;;18.00;4.47;;;;;;;;;;5071267;28;20172;-82
2024/01/17 01:05:19;;;;;;;18.73;4.20;;;;;;;;;;5064126;28;20039;-83
2024/01/17 01:07:51;;;;;;;19.27;4.25;;;;;;;;;;5051414;28;20036;-82
2024/01/17 01:10:19;;;;;;;18.02;4.43;;;;;;;;;;5066101;28;20031;-81
2024/01/17 01:12:45;;;;;;;16.50;4.13;;;;;;;;;;5063051;28;20032;-81
2024/01/17 01:15:13;;;;;;;20.73;3.88;;;;;;;;;;5061701;28;20024;-81
2024/01/17 01:17:41;;;;;;;15.68;4.22;;;;;;;;;;5047694;28;20254;-82
2024/01/17 01:20:19;;;;;;;16.65;3.90;;;;;;;;;;5063635;28;20028;-82
2024/01/17 01:22:47;;;;;;;20.75;4.55;;;;;;;;;;5064408;28;20039;-82
2024/01/17 01:25:13;;;;;;;22.58;5.00;;;;;;;;;;5069038;28;20073;-82
2024/01/17 01:27:42;;;;;;;17.30;4.35;;;;;;;;;;5063111;28;20024;-82
2024/01/17 01:30:08;;;;;;;22.80;4.78;;;;;;;;;;5066826;28;20028;-82
2024/01/17 01:32:37;;;;;;;21.25;4.90;;;;;;;;;;5050327;28;20040;-83
2024/01/17 01:35:04;;;;;;;20.23;4.80;;;;;;;;;;5064338;28;20038;-83
2024/01/17 01:37:33;;;;;;;15.38;4.78;;;;;;;;;;5054995;28;20038;-82
2024/01/17 01:39:59;;;;;;;18.30;4.68;;;;;;;;;;5046380;28;20040;-83
2024/01/17 01:42:28;;;;;;;20.08;5.05;;;;;;;;;;5044688;28;20402;-82
2024/01/17 01:44:56;;;;;;;21.10;4.65;;;;;;;;;;5042161;28;20369;-83
2024/01/17 01:47:23;;;;;;;20.92;5.32;;;;;;;;;;5046026;28;20041;-82
2024/01/17 01:49:52;;;;;;;17.23;4.75;;;;;;;;;;5029305;28;20525;-82
2024/01/17 01:52:20;;;;;;;21.17;4.82;;;;;;;;;;5044673;28;20114;-83
2024/01/17 01:54:49;;;;;;;20.42;4.47;;;;;;;;;;5044191;28;20032;-82
2024/01/17 01:57:20;;;;;;;25.02;5.82;;;;;;;;;;5043378;28;20109;-83
2024/01/17 01:59:48;;;;;;;21.02;5.38;;;;;;;;;;5041582;28;20652;-81
2024/01/17 02:02:16;;;;;;;23.02;5.15;;;;;;;;;;5043635;28;20106;-82
2024/01/17 02:04:45;;;;;;;25.10;5.43;;;;;;;;;;5046303;28;20036;-82
2024/01/17 02:07:12;;;;;;;23.10;5.75;;;;;;;;;;5046149;28;20124;-82
2024/01/17 02:09:41;;;;;;;24.55;5.53;;;;;;;;;;5046493;28;20447;-82
2024/01/17 02:12:08;;;;;;;26.00;6.28;;;;;;;;;;5041195;28;20037;-82
2024/01/17 02:14:40;;;;;;;26.45;6.65;;;;;;;;;;5045098;28;20036;-83
2024/01/17 02:17:18;;;;;;;27.02;5.85;;;;;;;;;;5042729;28;20606;-82
2024/01/17 02:19:45;;;;;;;26.08;6.60;;;;;;;;;;5044974;28;20037;-81
2024/01/17 02:22:11;;;;;;;28.00;6.55;;;;;;;;;;5041923;28;20032;-82
2024/01/17 02:24:37;;;;;;;;;;;;;;;;;;5043084;28;20099;-83
2024/01/17 02:27:08;;;;;;;24.50;6.53;;;;;;;;;;5047454;28;19923;-82
2024/01/17 02:29:35;;;;;;;24.25;6.22;;;;;;;;;;5044389;28;20036;-82
2024/01/17 02:32:03;;;;;;;30.30;6.63;;;;;;;;;;5044335;28;20029;-82
2024/01/17 02:34:29;;;;;;;30.50;6.20;;;;;;;;;;5044877;28;20067;-82
2024/01/17 02:36:56;;;;;;;;;;;;;;;;;;5042715;28;20174;-81
2024/01/17 02:39:24;;;;;;;25.58;5.90;;;;;;;;;;5045022;28;19968;-82
2024/01/17 02:41:52;;;;;;;26.23;6.80;;;;;;;;;;5067435;28;20079;-82
2024/01/17 02:44:21;;;;;;;24.42;6.05;;;;;;;;;;5061751;28;20093;-82
2024/01/17 02:46:48;;;;;;;26.83;6.00;;;;;;;;;;5067095;28;20055;-82
2024/01/17 02:49:19;;;;;;;30.48;6.45;;;;;;;;;;5063116;28;20024;-82
2024/01/17 02:51:46;;;;;;;27.50;6.38;;;;;;;;;;5063895;28;20028;-81
2024/01/17 02:54:14;;;;;;;25.20;6.40;;;;;;;;;;5046675;28;20046;-82
2024/01/17 02:56:44;;;;;;;29.40;6.13;;;;;;;;;;5051175;28;20543;-82
2024/01/17 02:59:11;;;;;;;32.30;7.03;;;;;;;;;;5066277;28;20124;-82
2024/01/17 03:01:38;;;;;;;27.15;6.57;;;;;;;;;;5065663;28;20045;-82
2024/01/17 03:04:06;;;;;;;30.30;6.68;;;;;;;;;;5064019;28;20527;-82
2024/01/17 03:06:35;;;;;;;28.85;6.22;;;;;;;;;;5048950;28;20119;-82
2024/01/17 03:09:04;;;;;;;28.88;6.80;;;;;;;;;;5048279;28;20448;-82
2024/01/17 03:11:32;;;;;;;26.95;7.38;;;;;;;;;;5061148;28;20027;-81
2024/01/17 03:14:01;;;;;;;27.58;6.25;;;;;;;;;;5065430;28;20126;-83
2024/01/17 03:16:30;;;;;;;33.13;7.28;;;;;;;;;;5059293;28;20052;-81
2024/01/17 03:19:18;;;;;;;34.25;8.07;;;;;;;;;;5060710;28;20605;-81
2024/01/17 03:21:49;;;;;;;28.35;7.43;;;;;;;;;;5041557;28;20039;-81
2024/01/17 03:24:17;;;;;;;33.17;7.82;;;;;;;;;;5047382;28;20029;-81
2024/01/17 03:26:46;;;;;;;30.52;6.93;;;;;;;;;;5046002;28;20651;-81
2024/01/17 03:29:36;;;;;;;30.40;7.05;;;;;;;;;;5064384;28;20569;-82
2024/01/17 03:32:13;;;;;;;28.67;7.05;;;;;;;;;;5050566;28;20028;-82
2024/01/17 03:34:41;;;;;;;34.58;7.68;;;;;;;;;;5058559;28;20031;-82
2024/01/17 03:37:07;;;;;;;32.42;7.57;;;;;;;;;;5044749;28;20523;-82
2024/01/17 03:39:34;;;;;;;35.03;7.72;;;;;;;;;;5046394;28;20795;-82
2024/01/17 03:42:02;;;;;;;31.50;7.70;;;;;;;;;;5063527;28;20652;-82
2024/01/17 03:44:30;;;;;;;34.15;7.85;;;;;;;;;;5063141;28;20547;-81
2024/01/17 03:46:58;;;;;;;31.80;7.68;;;;;;;;;;5042717;28;20119;-83
2024/01/17 03:49:27;;;;;;;35.13;8.15;;;;;;;;;;5060563;28;20127;-81
2024/01/17 03:51:55;;;;;;;38.00;7.82;;;;;;;;;;5063304;28;20044;-82
2024/01/17 03:54:23;;;;;;;32.80;8.38;;;;;;;;;;5046848;28;20075;-82
2024/01/17 03:56:52;;;;;;;40.55;8.00;;;;;;;;;;5048982;28;20073;-82
2024/01/17 03:59:21;;;;;;;35.05;8.50;;;;;;;;;;5063241;28;20039;-81
2024/01/17 04:01:49;;;;;;;34.13;8.55;;;;;;;;;;5045973;28;20053;-81
2024/01/17 04:04:18;;;;;;;30.38;8.20;;;;;;;;;;5060306;28;20024;-81
2024/01/17 04:06:45;;;;;;;38.47;8.85;;;;;;;;;;5047881;28;20037;-82
2024/01/17 04:09:13;;;;;;;31.30;7.45;;;;;;;;;;5041220;28;20154;-82
2024/01/17 04:11:42;;;;;;;34.95;7.65;;;;;;;;;;5049018;28;20032;-81
2024/01/17 04:14:12;;;;;;;33.40;7.47;;;;;;;;;;5055569;28;20031;-81
2024/01/17 04:16:39;;;;;;;30.50;7.32;;;;;;;;;;5063865;28;20135;-81
2024/01/17 04:19:09;;;;;;;34.33;7.70;;;;;;;;;;5045838;28;20075;-81
2024/01/17 04:21:37;;;;;;;30.75;7.13;;;;;;;;;;5061217;28;20089;-81
2024/01/17 04:24:04;;;;;;;27.13;7.13;;;;;;;;;;5045456;28;20105;-83
2024/01/17 04:26:31;;;;;;;;;;;;;;;;;;5043907;28;20024;-83
2024/01/17 04:29:01;;;;;;;27.83;6.15;;;;;;;;;;5057782;28;19913;-83
2024/01/17 04:31:31;;;;;;;32.17;7.55;;;;;;;;;;5043287;28;20067;-83
2024/01/17 04:34:02;;;;;;;26.30;6.18;;;;;;;;;;5063454;28;20446;-83
2024/01/17 04:36:31;;;;;;;27.15;6.53;;;;;;;;;;5028176;28;20032;-83
2024/01/17 04:39:00;;;;;;;30.98;6.93;;;;;;;;;;5033426;28;20035;-83
2024/01/17 04:41:29;;;;;;;33.40;7.13;;;;;;;;;;5042269;28;20049;-83
2024/01/17 04:43:56;;;;;;;31.83;7.55;;;;;;;;;;5043358;28;20683;-83
2024/01/17 04:46:25;;;;;;;28.08;6.72;;;;;;;;;;5041023;28;20464;-83
2024/01/17 04:48:51;;;;;;;31.17;6.60;;;;;;;;;;5042885;28;20047;-83
2024/01/17 04:51:25;;;;;;;30.30;7.18;;;;;;;;;;5042125;28;20865;-83
2024/01/17 04:54:09;;;;;;;30.00;7.70;;;;;;;;;;5043043;28;20541;-83
2024/01/17 04:56:37;;;;;;;32.83;7.50;;;;;;;;;;5049094;28;20036;-84
2024/01/17 04:59:06;;;;;;;30.95;7.30;;;;;;;;;;5045563;28;20116;-83
2024/01/17 05:01:35;;;;;;;38.45;8.57;;;;;;;;;;5048978;28;20040;-83
2024/01/17 05:04:02;;;;;;;32.53;7.53;;;;;;;;;;5051753;28;20508;-81
2024/01/17 05:06:34;;;;;;;26.50;7.30;;;;;;;;;;5046380;28;20036;-82
2024/01/17 05:09:03;;;;;;;29.55;7.25;;;;;;;;;;5044675;28;20033;-82
2024/01/17 05:11:31;;;;;;;29.00;7.75;;;;;;;;;;5046630;28;20086;-82
2024/01/17 05:13:57;;;;;;;27.63;7.30;;;;;;;;;;5043918;28;20094;-81
2024/01/17 05:16:25;;;;;;;31.83;7.57;;;;;;;;;;5044967;28;20055;-81
2024/01/17 05:18:54;;;;;;;30.63;7.72;;;;;;;;;;5048812;28;20525;-81
2024/01/17 05:21:31;;;;;;;29.10;7.30;;;;;;;;;;5043693;28;20040;-84
2024/01/17 05:23:58;;;;;;;31.80;7.82;;;;;;;;;;5038575;28;20017;-81
2024/01/17 05:26:26;;;;;;;25.67;7.07;;;;;;;;;;5044414;28;23274;-82
2024/01/17 05:28:53;;;;;;;31.38;7.70;;;;;;;;;;5046945;28;20120;-81
2024/01/17 05:31:22;;;;;;;29.10;7.38;;;;;;;;;;5043838;28;20024;-81
2024/01/17 05:33:50;;;;;;;27.00;6.93;;;;;;;;;;5047575;28;20028;-82
2024/01/17 05:36:17;;;;;;;32.53;7.13;;;;;;;;;;5047297;28;20036;-82
2024/01/17 05:38:47;;;;;;;33.13;7.43;;;;;;;;;;5048933;28;20115;-81
2024/01/17 05:41:15;;;;;;;30.25;7.00;;;;;;;;;;5060987;28;20087;-81
2024/01/17 05:43:43;;;;;;;31.05;7.22;;;;;;;;;;5049449;28;20579;-81
2024/01/17 05:46:11;;;;;;;35.17;7.60;;;;;;;;;;5051104;28;20031;-81
2024/01/17 05:48:39;;;;;;;31.50;7.38;;;;;;;;;;5067535;28;20024;-81
2024/01/17 05:51:06;;;;;;;33.47;7.65;;;;;;;;;;5063689;28;20036;-82
2024/01/17 05:53:35;;;;;;;31.17;7.68;;;;;;;;;;5067776;28;20101;-82
2024/01/17 05:56:01;;;;;;;35.40;7.90;;;;;;;;;;5069372;28;20046;-81
2024/01/17 05:58:30;;;;;;;36.05;8.45;;;;;;;;;;5050194;28;20687;-82
2024/01/17 06:00:57;;;;;;;31.75;7.80;;;;;;;;;;5053000;28;20038;-84
2024/01/17 06:03:23;;;;;;;30.73;7.95;;;;;;;;;;5060861;28;20101;-84
2024/01/17 06:05:53;;;;;;;31.00;7.30;;;;;;;;;;5053812;28;20151;-82
2024/01/17 06:08:22;;;;;;;30.17;7.68;;;;;;;;;;5061633;28;20091;-85
2024/01/17 06:10:54;;;;;;;32.17;7.32;;;;;;;;;;5067510;28;20024;-84
2024/01/17 06:13:25;;;;;;;27.77;7.47;;;;;;;;;;5064016;28;20127;-82
2024/01/17 06:15:52;;;;;;;30.67;8.15;;;;;;;;;;5070193;28;20037;-83
2024/01/17 06:18:21;;;;;;;29.92;7.78;;;;;;;;;;5065470;28;20028;-83
2024/01/17 06:20:49;;;;;;;30.88;7.32;;;;;;;;;;5049045;28;20024;-83
2024/01/17 06:23:17;;;;;;;33.72;7.80;;;;;;;;;;5063912;28;20554;-83
2024/01/17 06:26:08;;;;;;;35.25;7.18;;;;;;;;;;5051251;28;20457;-84
2024/01/17 06:28:35;;;;;;;35.25;7.43;;;;;;;;;;5046978;28;20512;-83
2024/01/17 06:31:06;;;;;;;34.08;7.22;;;;;;;;;;5066387;28;20114;-82
2024/01/17 06:33:32;;;;;;;29.27;6.50;;;;;;;;;;5049763;28;20051;-83
2024/01/17 06:35:59;;;;;;;32.78;7.10;;;;;;;;;;5063818;28;20083;-84
2024/01/17 06:38:25;;;;;;;33.53;7.25;;;;;;;;;;5040815;28;20040;-85
2024/01/17 06:40:52;;;;;;;33.35;6.95;;;;;;;;;;5065386;28;20511;-84
2024/01/17 06:43:20;;;;;;;32.15;7.18;;;;;;;;;;5062615;28;20129;-85
2024/01/17 06:45:48;;;;;;;28.88;6.95;;;;;;;;;;5067209;28;20036;-84
2024/01/17 06:48:17;;;;;;;27.23;6.82;;;;;;;;;;5063170;28;20027;-83
2024/01/17 06:50:44;;;;;;;32.58;7.30;;;;;;;;;;5065470;28;20031;-84
2024/01/17 06:53:13;;;;;;;28.58;6.88;;;;;;;;;;5069063;28;20040;-84
2024/01/17 06:55:52;;;;;;;31.75;7.07;;;;;;;;;;5069998;28;20037;-84
2024/01/17 06:58:19;;;;;;;27.65;6.70;;;;;;;;;;5065510;28;20036;-84
2024/01/17 07:00:47;;;;;;;29.05;6.70;;;;;;;;;;5056070;28;20075;-85
2024/01/17 07:03:16;;;;;;;27.75;7.00;;;;;;;;;;5073145;28;20111;-82
2024/01/17 07:05:43;;;;;;;27.17;6.90;;;;;;;;;;5074474;28;20035;-85
2024/01/17 07:08:10;;;;;;;30.20;7.13;;;;;;;;;;5064548;28;20081;-84
2024/01/17 07:10:40;;;;;;;24.80;6.38;;;;;;;;;;5047178;28;20109;-83
2024/01/17 07:13:08;;;;;;;34.95;6.97;;;;;;;;;;5063599;28;20133;-83
2024/01/17 07:15:37;;;;;;;27.40;6.05;;;;;;;;;;5065824;28;20112;-83
2024/01/17 07:18:06;;;;;;;27.42;6.90;;;;;;;;;;5049671;28;20035;-82
2024/01/17 07:20:33;;;;;;;28.75;6.60;;;;;;;;;;5066815;28;20139;-84
2024/01/17 07:23:01;;;;;;;27.05;6.88;;;;;;;;;;5066830;28;20135;-83
2024/01/17 07:25:31;;;;;;;23.70;6.57;;;;;;;;;;5049423;28;20107;-82
2024/01/17 07:28:07;;;;;;;28.45;7.00;;;;;;;;;;5059500;28;20123;-82
2024/01/17 07:30:36;;;;;;;26.92;6.05;;;;;;;;;;5063933;28;20109;-82
2024/01/17 07:33:03;;;;;;;20.10;6.75;;;;;;;;;;5046880;28;20043;-82
2024/01/17 07:35:32;;;;;;;26.58;6.40;;;;;;;;;;5045777;28;20143;-81
2024/01/17 07:38:02;;;;;;;27.70;6.97;;;;;;;;;;5058724;28;20260;-83
2024/01/17 07:40:39;;;;;;;25.50;6.20;;;;;;;;;;5062312;28;20093;-81
2024/01/17 07:43:05;;;;;;;25.15;6.30;;;;;;;;;;5064290;28;20032;-83
2024/01/17 07:45:31;;;;;;;23.27;5.78;;;;;;;;;;5048140;28;20027;-83
2024/01/17 07:47:58;;;;;;;;;;;;;;;;;;5062683;28;20036;-84
2024/01/17 07:50:27;;;;;;;22.85;6.40;;;;;;;;;;5049580;28;20018;-83
2024/01/17 07:52:53;;;;;;;32.22;7.00;;;;;;;;;;5062765;28;20055;-84
2024/01/17 07:55:19;;;;;;;26.10;6.82;;;;;;;;;;5049171;28;20582;-85
2024/01/17 07:57:46;;;;;;;;;;;;;;;;;;5067546;28;20028;-83
2024/01/17 08:00:15;;;;;;;24.52;6.55;;;;;;;;;;5044293;28;19912;-83
2024/01/17 08:02:43;;;;;;;23.90;6.25;;;;;;;;;;5065590;28;20191;-83
2024/01/17 08:05:12;;;;;;;23.58;6.07;;;;;;;;;;5063728;28;20020;-82
2024/01/17 08:07:39;;;;;;;22.33;5.93;;;;;;;;;;5051300;28;20067;-79
2024/01/17 08:10:07;;;;;;;24.88;6.28;;;;;;;;;;5062292;28;20085;-82
2024/01/17 08:12:35;;;;;;;26.40;7.00;;;;;;;;;;5056795;28;20048;-81
2024/01/17 08:15:04;;;;;;;22.40;6.55;;;;;;;;;;5057864;28;20093;-80
2024/01/17 08:17:31;;;;;;;26.20;7.00;;;;;;;;;;5061350;28;20039;-80
2024/01/17 08:20:00;;;;;;;21.38;6.88;;;;;;;;;;5064230;28;20032;-80
2024/01/17 08:22:28;;;;;;;26.70;6.57;;;;;;;;;;5061143;28;20132;-80
2024/01/17 08:24:55;;;;;;;22.85;7.05;;;;;;;;;;5046796;28;20031;-80
2024/01/17 08:27:24;;;;;;;27.08;6.78;;;;;;;;;;5048102;28;20133;-82
2024/01/17 08:29:50;;;;;;;28.55;7.45;;;;;;;;;;5053880;28;20087;-84
2024/01/17 08:32:18;;;;;;;28.48;7.47;;;;;;;;;;5054311;28;20710;-81
2024/01/17 08:34:46;;;;;;;27.70;7.00;;;;;;;;;;5056510;28;20067;-81
2024/01/17 08:37:12;;;;;;;30.48;7.72;;;;;;;;;;5069371;28;20072;-82
2024/01/17 08:39:43;;;;;;;29.88;7.47;;;;;;;;;;5072408;28;20061;-85
2024/01/17 08:42:11;;;;;;;34.35;8.75;;;;;;;;;;5050615;28;20093;-85
2024/01/17 08:44:38;;;;;;;34.53;8.45;;;;;;;;;;5069597;28;20055;-84
2024/01/17 08:47:06;;;;;;;36.13;9.23;;;;;;;;;;5072596;28;20103;-84
2024/01/17 08:49:32;;;;;;;35.95;9.93;;;;;;;;;;5051677;28;20669;-84
2024/01/17 08:51:59;;;;;;;39.28;10.20;;;;;;;;;;5053677;28;20028;-84
2024/01/17 08:54:26;;;;;;;33.05;9.35;;;;;;;;;;5051178;28;21735;-85
2024/01/17 08:56:56;;;;;;;32.80;9.00;;;;;;;;;;5052715;28;20066;-85
2024/01/17 08:59:23;;;;;;;41.40;9.93;;;;;;;;;;5070928;28;20035;-84
2024/01/17 09:01:52;;;;;;;36.00;9.82;;;;;;;;;;5049869;28;20033;-82
2024/01/17 09:04:19;;;;;;;29.30;9.43;;;;;;;;;;5067953;28;20672;-84
2024/01/17 09:06:45;;;;;;;26.98;8.52;;;;;;;;;;5050157;28;20023;-85
2024/01/17 09:09:12;;;;;;;;;;;;;;;;;;5062028;28;20668;-84
2024/01/17 09:11:39;;;;;;;31.30;8.75;;;;;;;;;;5053977;28;19966;-84
2024/01/17 09:14:06;;;;;;;34.35;9.23;;;;;;;;;;5047714;28;20051;-84
2024/01/17 09:16:33;;;;;;;31.63;9.40;;;;;;;;;;5071884;28;20032;-84
2024/01/17 09:18:59;;;;;;;30.70;9.40;;;;;;;;;;5071633;28;20039;-85
2024/01/17 09:21:26;;;;;;;;;;;;;;;;;;5068908;28;21591;-85
2024/01/17 09:23:52;;;;;;;36.95;10.60;;;;;;;;;;5047134;28;19918;-85
2024/01/17 09:26:18;;;;;;;;;;;;;;;;;;5066563;28;20676;-84
2024/01/17 09:28:44;;;;;;;35.80;11.57;;;;;;;;;;5068321;28;19915;-85
2024/01/17 09:31:11;;;;;;;32.85;10.25;;;;;;;;;;5056034;28;20033;-82
2024/01/17 09:33:38;;;;;;;36.58;10.73;;;;;;;;;;5051953;28;20055;-79
2024/01/17 09:36:05;;;;;;;28.42;9.27;;;;;;;;;;5066761;28;20024;-82
2024/01/17 09:38:31;;;;;;;37.45;10.57;;;;;;;;;;5065107;28;20028;-81
2024/01/17 09:40:57;;;;;;;;;;;;;;;;;;5055086;28;20039;-81
2024/01/17 09:43:24;;;;;;;34.80;8.63;;;;;;;;;;5073026;28;20436;-81
2024/01/17 09:45:52;;;;;;;30.10;8.45;;;;;;;;;;5057036;28;20725;-82
2024/01/17 09:48:18;;;;;;;33.80;9.07;;;;;;;;;;5052802;28;20032;-82
2024/01/17 09:50:45;;;;;;;34.17;8.70;;;;;;;;;;5053953;28;20032;-83
2024/01/17 09:53:12;;;;;;;31.02;9.48;;;;;;;;;;5045506;28;20047;-82
2024/01/17 09:55:39;;;;;;;37.95;8.77;;;;;;;;;;5055018;28;20028;-81
2024/01/17 09:58:07;;;;;;;30.73;9.05;;;;;;;;;;5053823;28;20027;-82
2024/01/17 10:00:34;;;;;;;32.95;9.07;;;;;;;;;;5068452;28;20032;-82
2024/01/17 10:03:04;;;;;;;37.70;9.65;;;;;;;;;;5051738;28;20048;-82
2024/01/17 10:05:30;;;;;;;33.15;9.50;;;;;;;;;;5049734;28;20031;-82
2024/01/17 10:07:59;;;;;;;33.90;8.88;;;;;;;;;;5065972;28;20036;-82
2024/01/17 10:10:27;;;;;;;36.78;10.10;;;;;;;;;;5051738;28;20032;-82
2024/01/17 10:12:54;;;;;;;39.17;9.90;;;;;;;;;;5052727;28;20025;-81
2024/01/17 10:15:23;;;;;;;31.90;9.57;;;;;;;;;;5068022;28;20089;-84
2024/01/17 10:17:49;;;;;;;28.90;9.07;;;;;;;;;;5047476;28;20028;-82
2024/01/17 10:20:16;;;;;;;29.63;7.38;;;;;;;;;;5048698;28;20039;-83
2024/01/17 10:22:46;;;;;;;27.38;7.68;;;;;;;;;;5070006;28;20081;-82
2024/01/17 10:25:13;;;;;;;26.90;7.53;;;;;;;;;;5053046;28;20043;-83
2024/01/17 10:27:39;;;;;;;31.70;7.82;;;;;;;;;;5066332;28;20035;-83
2024/01/17 10:30:05;;;;;;;32.25;7.63;;;;;;;;;;5066949;28;20115;-83
2024/01/17 10:32:32;;;;;;;31.23;8.10;;;;;;;;;;5051619;28;20032;-83
2024/01/17 10:34:59;;;;;;;30.65;8.15;;;;;;;;;;5047293;28;20366;-82
2024/01/17 10:37:27;;;;;;;29.40;7.50;;;;;;;;;;5050449;28;24321;-83
2024/01/17 10:40:13;;;;;;;31.75;7.90;;;;;;;;;;5064519;28;20118;-85
2024/01/17 10:42:40;;;;;;;23.30;6.78;;;;;;;;;;5063320;28;20040;-75
2024/01/17 10:45:08;;;;;;;23.98;6.85;;;;;;;;;;5063458;28;20119;-76
2024/01/17 10:47:34;;;;;;;32.58;7.43;;;;;;;;;;5065998;28;20016;-76
2024/01/17 10:50:02;;;;;;;24.67;7.20;;;;;;;;;;5050929;28;20035;-76
2024/01/17 10:52:33;;;;;;;30.58;7.90;;;;;;;;;;5061996;28;20133;-83
2024/01/17 10:55:04;;;;;;;29.05;7.80;;;;;;;;;;5048368;28;20031;-84
2024/01/17 10:57:34;;;;;;;32.65;8.02;;;;;;;;;;5065672;28;20051;-83
2024/01/17 11:00:04;;;;;;;32.70;8.48;;;;;;;;;;5050753;28;20032;-82
2024/01/17 11:02:30;;;;;;;26.52;7.85;;;;;;;;;;5046739;28;20035;-84
2024/01/17 11:04:59;;;;;;;23.85;6.97;;;;;;;;;;5051278;28;20557;-84
2024/01/17 11:07:27;;;;;;;28.00;7.60;;;;;;;;;;5064450;28;20700;-83
2024/01/17 11:09:54;;;;;;;26.17;6.80;;;;;;;;;;5050597;28;20151;-82
2024/01/17 11:12:21;;;;;;;27.38;7.35;;;;;;;;;;5062891;28;20055;-84
2024/01/17 11:14:50;;;;;;;25.60;7.25;;;;;;;;;;5048643;28;20024;-84
2024/01/17 11:17:17;;;;;;;27.67;7.35;;;;;;;;;;5062278;28;20054;-84
2024/01/17 11:19:44;;;;;;;31.92;7.57;;;;;;;;;;5066310;28;20028;-84
2024/01/17 11:22:12;;;;;;;24.20;6.88;;;;;;;;;;5062911;28;20514;-84
2024/01/17 11:24:39;;;;;;;31.73;8.32;;;;;;;;;;5064183;28;20016;-84
2024/01/17 11:27:35;;;;;;;28.38;7.35;;;;;;;;;;5049983;28;20032;-84
2024/01/17 11:30:01;;;;;;;30.88;7.45;;;;;;;;;;4991213;28;20029;-85
2024/01/17 11:32:54;;;;;;;28.73;6.80;;;;;;;;;;4988975;28;20133;-85
2024/01/17 11:35:38;;;;;;;25.00;6.68;;;;;;;;;;4984154;28;20470;-84
2024/01/17 11:38:06;;;;;;;28.63;7.53;;;;;;;;;;5005022;28;20029;-84
2024/01/17 11:40:32;;;;;;;27.85;6.78;;;;;;;;;;5002657;28;20479;-84
2024/01/17 11:42:58;;;;;;;25.35;6.82;;;;;;;;;;5006459;28;20483;-86
2024/01/17 11:45:24;;;;;;;24.85;6.63;;;;;;;;;;4991015;28;20760;-83
2024/01/17 11:47:55;;;;;;;26.58;7.65;;;;;;;;;;4991753;28;20041;-84
2024/01/17 11:50:23;;;;;;;30.42;7.03;;;;;;;;;;4989424;28;20033;-84
2024/01/17 11:52:49;;;;;;;28.73;6.85;;;;;;;;;;4992219;28;20049;-75
2024/01/17 11:55:16;;;;;;;30.35;7.97;;;;;;;;;;5002339;28;20026;-75
2024/01/17 11:57:43;;;;;;;25.30;7.30;;;;;;;;;;4991623;28;20035;-76
2024/01/17 12:00:12;;;;;;;27.10;6.32;;;;;;;;;;4991386;28;20836;-75
2024/01/17 12:02:41;;;;;;;26.13;6.47;;;;;;;;;;4986810;28;20901;-76
2024/01/17 12:05:07;;;;;;;28.45;7.00;;;;;;;;;;4985855;28;20026;-75
2024/01/17 12:07:42;;;;;;;27.92;7.10;;;;;;;;;;5046237;28;20040;-75
2024/01/17 12:10:13;;;;;;;27.45;7.07;;;;;;;;;;5064467;28;20586;-75
2024/01/17 12:12:42;;;;;;;25.63;7.43;;;;;;;;;;5048474;28;20031;-76
2024/01/17 12:15:12;;;;;;;27.50;6.60;;;;;;;;;;5041286;28;20615;-76
2024/01/17 12:17:39;;;;;;;26.45;6.63;;;;;;;;;;5034349;28;20068;-76
2024/01/17 12:20:07;;;;;;;27.08;7.43;;;;;;;;;;5050124;28;20081;-76
2024/01/17 12:22:34;;;;;;;27.50;6.50;;;;;;;;;;5046246;28;20861;-75
2024/01/17 12:25:02;;;;;;;25.58;6.85;;;;;;;;;;5049920;28;20028;-75
2024/01/17 12:27:32;;;;;;;29.35;6.97;;;;;;;;;;5027242;28;20111;-75
2024/01/17 12:30:13;;;;;;;25.20;6.47;;;;;;;;;;5032396;28;20070;-75
2024/01/17 12:32:42;;;;;;;30.48;6.72;;;;;;;;;;5062760;28;20480;-75
2024/01/17 12:35:09;;;;;;;33.00;7.53;;;;;;;;;;5058098;28;20074;-75
2024/01/17 12:37:38;;;;;;;25.98;6.68;;;;;;;;;;5058841;28;20537;-75
2024/01/17 12:40:08;;;;;;;29.95;7.38;;;;;;;;;;5046649;28;20569;-76
2024/01/17 12:42:37;;;;;;;32.20;7.70;;;;;;;;;;5049439;28;20028;-76
2024/01/17 12:45:06;;;;;;;32.17;8.02;;;;;;;;;;5058434;28;20996;-75
2024/01/17 12:47:33;;;;;;;30.13;7.65;;;;;;;;;;5048768;28;20491;-76
2024/01/17 12:50:00;;;;;;;35.97;8.27;;;;;;;;;;5046827;28;20040;-76
2024/01/17 12:52:29;;;;;;;40.85;7.90;;;;;;;;;;5045170;28;20039;-75
2024/01/17 12:54:57;;;;;;;30.55;7.50;;;;;;;;;;5046181;28;20037;-76
2024/01/17 12:57:28;;;;;;;32.08;7.45;;;;;;;;;;5061115;28;20075;-76
2024/01/17 12:59:55;;;;;;;32.33;8.13;;;;;;;;;;5043127;28;20740;-77
2024/01/17 13:02:23;;;;;;;33.22;8.32;;;;;;;;;;5062653;28;20855;-75
2024/01/17 13:05:08;;;;;;;33.03;7.88;;;;;;;;;;5050569;28;20028;-75
2024/01/17 13:07:35;;;;;;;37.50;8.02;;;;;;;;;;5049683;28;20032;-75
2024/01/17 13:10:20;;;;;;;34.95;7.80;;;;;;;;;;5050181;28;20032;-75
2024/01/17 13:12:49;;;;;;;36.92;8.18;;;;;;;;;;5032162;28;20032;-76
2024/01/17 13:15:16;;;;;;;32.65;8.07;;;;;;;;;;5044903;28;20861;-75
2024/01/17 13:17:49;;;;;;;34.83;7.80;;;;;;;;;;5049445;28;20028;-75
2024/01/17 13:20:21;;;;;;;32.50;8.50;;;;;;;;;;5061024;28;20098;-75
2024/01/17 13:22:53;;;;;;;32.25;7.40;;;;;;;;;;5050883;28;20067;-75
2024/01/17 13:25:22;;;;;;;35.10;7.88;;;;;;;;;;5053027;28;20123;-75
2024/01/17 13:28:00;;;;;;;33.20;8.35;;;;;;;;;;5052504;28;20050;-75
2024/01/17 13:30:34;;;;;;;33.35;8.40;;;;;;;;;;5030609;28;20797;-75
2024/01/17 13:33:05;;;;;;;34.00;8.20;;;;;;;;;;5065312;28;20545;-75
2024/01/17 13:35:33;;;;;;;37.03;8.02;;;;;;;;;;5047373;28;20123;-75
2024/01/17 13:38:02;;;;;;;31.77;8.32;;;;;;;;;;5063193;28;20039;-76
2024/01/17 13:40:29;;;;;;;41.05;7.55;;;;;;;;;;5029500;28;20071;-76
2024/01/17 13:42:57;;;;;;;36.72;7.38;;;;;;;;;;5061863;28;20028;-76
2024/01/17 13:45:27;;;;;;;35.42;7.88;;;;;;;;;;5043880;28;20074;-77
2024/01/17 13:47:55;;;;;;;34.17;8.23;;;;;;;;;;5066611;28;20668;-77
2024/01/17 13:50:25;;;;;;;36.35;7.40;;;;;;;;;;5044230;28;20092;-75
2024/01/17 13:52:57;;;;;;;32.78;6.85;;;;;;;;;;5063926;28;20074;-75
2024/01/17 13:55:26;;;;;;;29.13;7.68;;;;;;;;;;5063951;28;20082;-76
2024/01/17 13:57:54;;;;;;;33.92;7.47;;;;;;;;;;5032935;28;20043;-75
2024/01/17 14:00:23;;;;;;;35.45;7.55;;;;;;;;;;5048297;28;20166;-76
2024/01/17 14:03:03;;;;;;;28.90;7.88;;;;;;;;;;5064456;28;20139;-75
2024/01/17 14:05:33;;;;;;;32.60;7.65;;;;;;;;;;5067885;28;20048;-76
2024/01/17 14:08:02;;;;;;;31.38;6.85;;;;;;;;;;5062718;28;20052;-75
2024/01/17 14:10:31;;;;;;;31.48;7.50;;;;;;;;;;5065561;28;20075;-76
2024/01/17 14:12:59;;;;;;;32.47;7.70;;;;;;;;;;5043366;28;20024;-75
2024/01/17 14:15:28;;;;;;;32.28;7.80;;;;;;;;;;5056753;28;20121;-74
2024/01/17 14:17:59;;;;;;;28.08;7.72;;;;;;;;;;5063537;28;20139;-75
2024/01/17 14:20:28;;;;;;;35.55;7.57;;;;;;;;;;5043972;28;20051;-74
2024/01/17 14:22:58;;;;;;;31.90;7.30;;;;;;;;;;5046400;28;20043;-75
2024/01/17 14:25:24;;;;;;;27.92;6.72;;;;;;;;;;5061787;28;20043;-76
2024/01/17 14:27:51;;;;;;;27.10;5.93;;;;;;;;;;5044613;28;20039;-75
2024/01/17 14:30:18;;;;;;;26.58;6.90;;;;;;;;;;5046613;28;20412;-76
2024/01/17 14:32:47;;;;;;;28.85;7.00;;;;;;;;;;5063155;28;20105;-76
2024/01/17 14:35:15;;;;;;;26.77;6.93;;;;;;;;;;5060054;28;20036;-74
2024/01/17 14:37:45;;;;;;;26.02;7.18;;;;;;;;;;5063216;28;20039;-75
2024/01/17 14:40:23;;;;;;;29.92;7.47;;;;;;;;;;5060921;28;20035;-74
2024/01/17 14:42:49;;;;;;;28.65;7.32;;;;;;;;;;5061630;28;20024;-75